Terminal Aerodrome Forecast
Issued by NWS Albany, NY

Home | Current Version | Previous Version | Text Only | Print | Product List | Glossary On
Versions: 1 2 3 4 5 6 7 8 9 10 11 12 13 14 15 16 17 18 19 20 21
000
FTUS41 KALY 260537
TAFGFL
TAF
KGFL 260537Z 2606/2706 00000KT 3/4SM BR VV002
      TEMPO 2606/2610 2SM BR SCT002
     FM261100 00000KT 6SM BR SKC
     FM261200 VRB03KT P6SM FEW035
     FM261600 18006KT P6SM FEW250=

USA.gov is the U.S. government's official web portal to all federal, state and local government web resources and services.